North Myrtle Beach, South Carolina
Current Conditions -  °F | °C
As of 3:53 AM on Friday 24 Oct 2014 (Local Time) from KCRE Reporting Station
Clear Clear  
Wind Chill: 50°   Ceiling: Unl
Heat Index: 50°   Visibility: 10mi
Dew Point: 45°   Wind: 5mph
Humidity: 83%   Direction: 320°NW
Pressure: 30"   Gusts: NA
Location:  33.83°N, 78.68°W
Report Text: KCRE 240753Z AUTO 32004KT 10SM CLR 10/07 A3000 RMK AO1 SLP158 T01000072
Loading
Personal Weather Stations






























Interactive Weather Map New forecast layout! Learn more

10-Day Weather Forecast

Advertisements
Track Severe Weather on mobile